Terminal Aerodrome Forecast
Issued by NWS

Home | Current Version | Previous Version | Text Only | Print | Product List | Glossary On
Versions: 1 2 3 4 5 6 7 8 9 10 11 12 13 14 15 16 17 18 19 20 21 22 23 24 25
000
FTUS44 KSJT 240800 AAC
TAFBBD
TAF AMD
KBBD 240837Z 2409/2506 15014KT 5SM -SHRA BR OVC040
     FM241300 16010KT P6SM OVC015
     FM241900 22010KT P6SM BKN050=

USA.gov is the U.S. government's official web portal to all federal, state and local government web resources and services.